Time;durP1;ratioP1;P1;durP2;ratioP2;P2;SDS_P1;SDS_P2;PMS_P1;PMS_P2;Temp;Humidity;BMP_temperature;BMP_pressure;BME280_temperature;BME280_humidity;BME280_pressure;Samples;Min_cycle;Max_cycle;Signal;HPM_P1;HPM_P2
2022/01/16 00:04:09;;;;;;;;;;;;;;;;;;7394021;19;19914;-43
2022/01/16 00:06:45;;;;;;;;;;;;;;;;;;7395132;19;19925;-43
2022/01/16 00:09:12;;;;;;;;;;;;;;;;;;7395854;19;20032;-43
2022/01/16 00:11:40;;;;;;;;;;;;;;;;;;7395247;19;19923;-43
2022/01/16 00:14:08;;;;;;;;;;;;;;;;;;7395442;19;19914;-43
2022/01/16 00:16:35;;;;;;;;;;;;;;;;;;7395607;19;19914;-48
2022/01/16 00:19:03;;;;;;;;;;;;;;;;;;7394829;19;19919;-42
2022/01/16 00:21:36;;;;;;;;;;;;;;;;;;7398663;19;19991;-42
2022/01/16 00:24:04;;;;;;;;;;;;;;;;;;7395992;19;19943;-43
2022/01/16 00:26:32;;;;;;;;;;;;;;;;;;7395902;19;19911;-43
2022/01/16 00:29:00;;;;;;;;;;;;;;;;;;7394114;19;19918;-43
2022/01/16 00:31:27;;;;;;;;;;;;;;;;;;7395613;19;19915;-43
2022/01/16 00:33:54;;;;;;;;;;;;;;;;;;7395205;19;19919;-44
2022/01/16 00:36:21;;;;;;;;;;;;;;;;;;7394790;19;20267;-42
2022/01/16 00:38:49;;;;;;;;;;;;;;;;;;7393727;19;19940;-42
2022/01/16 00:41:18;;;;;;;;;;;;;;;;;;7392935;19;19915;-43
2022/01/16 00:43:46;;;;;;;;;;;;;;;;;;7395070;19;19932;-42
2022/01/16 00:46:13;;;;;;;;;;;;;;;;;;7394169;19;19918;-42
2022/01/16 00:48:40;;;;;;;;;;;;;;;;;;7394712;19;19915;-44
2022/01/16 00:51:09;;;;;;;;;;;;;;;;;;7394411;19;19915;-42
2022/01/16 00:53:36;;;;;;;;;;;;;;;;;;7395030;19;19996;-43
2022/01/16 00:56:03;;;;;;;;;;;;;;;;;;7393267;19;19929;-42
2022/01/16 00:58:30;;;;;;;;;;;;;;;;;;7392838;19;19926;-43
2022/01/16 01:00:58;;;;;;;;;;;;;;;;;;7393701;19;20457;-43
2022/01/16 01:03:25;;;;;;;;;;;;;;;;;;7393860;19;20333;-44
2022/01/16 01:05:53;;;;;;;;;;;;;;;;;;7394032;19;19934;-44
2022/01/16 01:08:20;;;;;;;;;;;;;;;;;;7393588;19;19978;-44
2022/01/16 01:10:50;;;;;;;;;;;;;;;;;;7393475;19;19914;-43
2022/01/16 01:16:03;;;;;;;;;;;;;;;;;;7393036;19;19930;-43
2022/01/16 01:18:31;;;;;;;;;;;;;;;;;;7393381;19;20036;-43
2022/01/16 01:21:01;;;;;;;;;;;;;;;;;;7395102;19;19954;-44
2022/01/16 01:23:29;;;;;;;;;;;;;;;;;;7393414;19;19942;-45
2022/01/16 01:25:56;;;;;;;;;;;;;;;;;;7393385;19;19929;-43
2022/01/16 01:28:24;;;;;;;;;;;;;;;;;;7392863;19;19914;-43
2022/01/16 01:30:51;;;;;;;;;;;;;;;;;;7392949;19;19997;-46
2022/01/16 01:33:20;;;;;;;;;;;;;;;;;;7391836;19;19942;-43
2022/01/16 01:35:47;;;;;;;;;;;;;;;;;;7392469;19;19937;-43
2022/01/16 01:38:18;;;;;;;;;;;;;;;;;;7391549;19;19919;-42
2022/01/16 01:40:47;;;;;;;;;;;;;;;;;;7392084;19;19991;-44
2022/01/16 01:51:24;;;;;;;;;;;;;;;;;;7391733;19;19931;-42
2022/01/16 01:53:53;;;;;;;;;;;;;;;;;;7389938;19;19946;-42
2022/01/16 01:56:22;;;;;;;;;;;;;;;;;;7389899;19;19941;-43
2022/01/16 01:58:50;;;;;;;;;;;;;;;;;;7391313;19;19915;-43
2022/01/16 02:01:18;;;;;;;;;;;;;;;;;;7391684;19;19934;-44
2022/01/16 02:03:48;;;;;;;;;;;;;;;;;;7393227;19;19919;-45
2022/01/16 02:06:16;;;;;;;;;;;;;;;;;;7391108;19;19915;-43
2022/01/16 02:08:45;;;;;;;;;;;;;;;;;;7392062;19;19926;-43
2022/01/16 02:11:13;;;;;;;;;;;;;;;;;;7391851;19;19915;-44
2022/01/16 02:35:38;;;;;;;;;;;;;;;;;;7390878;19;19922;-43
2022/01/16 02:38:08;;;;;;;;;;;;;;;;;;7391287;19;19911;-43
2022/01/16 02:40:37;;;;;;;;;;;;;;;;;;7390593;19;19919;-45
2022/01/16 02:43:05;;;;;;;;;;;;;;;;;;7390902;19;19935;-47
2022/01/16 02:45:36;;;;;;;;;;;;;;;;;;7391813;19;19939;-44
2022/01/16 02:48:06;;;;;;;;;;;;;;;;;;7390929;19;19915;-47
2022/01/16 02:50:36;;;;;;;;;;;;;;;;;;7390041;19;19922;-46
2022/01/16 02:53:09;;;;;;;;;;;;;;;;;;7391143;19;19918;-45
2022/01/16 02:55:40;;;;;;;;;;;;;;;;;;7390465;19;19978;-44
2022/01/16 02:58:08;;;;;;;;;;;;;;;;;;7390667;19;19918;-44
2022/01/16 03:00:35;;;;;;;;;;;;;;;;;;7389375;19;19983;-44
2022/01/16 03:03:03;;;;;;;;;;;;;;;;;;7389164;19;20267;-43
2022/01/16 03:05:31;;;;;;;;;;;;;;;;;;7389576;19;19915;-42
2022/01/16 03:07:58;;;;;;;;;;;;;;;;;;7389612;19;19947;-44
2022/01/16 03:12:58;;;;;;;;;;;;;;;;;;7390535;19;19927;-48
2022/01/16 03:15:25;;;;;;;;;;;;;;;;;;7389087;19;20343;-44
2022/01/16 03:23:13;;;;;;;;;;;;;;;;;;7390021;19;20336;-45
2022/01/16 03:25:41;;;;;;;;;;;;;;;;;;7389140;19;19915;-44
2022/01/16 03:28:08;;;;;;;;;;;;;;;;;;7388897;19;19926;-44
2022/01/16 03:30:35;;;;;;;;;;;;;;;;;;7390466;19;19915;-49
2022/01/16 03:33:02;;;;;;;;;;;;;;;;;;7390265;19;19923;-49
2022/01/16 03:35:30;;;;;;;;;;;;;;;;;;7394135;19;19990;-44
2022/01/16 03:37:57;;;;;;;;;;;;;;;;;;7396713;19;19922;-49
2022/01/16 03:40:25;;;;;;;;;;;;;;;;;;7394428;19;19950;-44
2022/01/16 03:42:52;;;;;;;;;;;;;;;;;;7397902;19;19930;-46
2022/01/16 03:45:19;;;;;;;;;;;;;;;;;;7396406;19;20329;-44
2022/01/16 03:47:47;;;;;;;;;;;;;;;;;;7395132;19;19954;-47
2022/01/16 03:50:14;;;;;;;;;;;;;;;;;;7396683;19;19939;-43
2022/01/16 03:52:41;;;;;;;;;;;;;;;;;;7395961;19;19925;-43
2022/01/16 03:55:08;;;;;;;;;;;;;;;;;;7388989;19;19926;-43
2022/01/16 03:57:36;;;;;;;;;;;;;;;;;;7389238;19;19919;-46
2022/01/16 04:00:05;;;;;;;;;;;;;;;;;;7387621;19;19951;-45
2022/01/16 04:02:32;;;;;;;;;;;;;;;;;;7389342;19;19918;-45
2022/01/16 04:05:00;;;;;;;;;;;;;;;;;;7387783;19;19934;-44
2022/01/16 04:07:32;;;;;;;;;;;;;;;;;;7388035;19;20541;-44
2022/01/16 04:09:59;;;;;;;;;;;;;;;;;;7387302;19;19914;-43
2022/01/16 04:12:27;;;;;;;;;;;;;;;;;;7387917;19;20336;-43
2022/01/16 04:17:27;;;;;;;;;;;;;;;;;;7388105;19;19958;-50
2022/01/16 04:19:54;;;;;;;;;;;;;;;;;;7386613;19;19958;-44
2022/01/16 04:22:21;;;;;;;;;;;;;;;;;;7387513;19;19930;-44
2022/01/16 04:24:48;;;;;;;;;;;;;;;;;;7386892;19;19918;-43
2022/01/16 04:27:16;;;;;;;;;;;;;;;;;;7390260;19;19939;-47
2022/01/16 04:29:43;;;;;;;;;;;;;;;;;;7386775;19;19930;-44
2022/01/16 04:32:10;;;;;;;;;;;;;;;;;;7387616;19;19927;-44
2022/01/16 04:34:38;;;;;;;;;;;;;;;;;;7386924;19;19926;-45
2022/01/16 04:37:05;;;;;;;;;;;;;;;;;;7387049;19;19923;-43
2022/01/16 04:39:35;;;;;;;;;;;;;;;;;;7385692;19;19994;-48
2022/01/16 04:44:49;;;;;;;;;;;;;;;;;;7384529;19;19930;-45
2022/01/16 04:47:17;;;;;;;;;;;;;;;;;;7386612;19;19933;-45
2022/01/16 04:49:44;;;;;;;;;;;;;;;;;;7386585;19;19930;-47
2022/01/16 04:52:11;;;;;;;;;;;;;;;;;;7386932;19;19932;-44
2022/01/16 04:54:38;;;;;;;;;;;;;;;;;;7386582;19;19918;-44
2022/01/16 04:57:05;;;;;;;;;;;;;;;;;;7383019;19;19919;-45
2022/01/16 04:59:33;;;;;;;;;;;;;;;;;;7388767;19;19918;-44
2022/01/16 05:02:00;;;;;;;;;;;;;;;;;;7386309;19;19930;-44
2022/01/16 05:04:27;;;;;;;;;;;;;;;;;;7385502;19;20333;-44
2022/01/16 05:06:54;;;;;;;;;;;;;;;;;;7385770;19;19925;-45
2022/01/16 05:09:21;;;;;;;;;;;;;;;;;;7386338;19;19927;-43
2022/01/16 05:11:54;;;;;;;;;;;;;;;;;;7386590;19;19951;-45
2022/01/16 05:17:07;;;;;;;;;;;;;;;;;;7385364;19;20355;-47
2022/01/16 05:19:35;;;;;;;;;;;;;;;;;;7386115;19;20335;-44
2022/01/16 05:22:02;;;;;;;;;;;;;;;;;;7388347;19;19929;-43
2022/01/16 05:24:33;;;;;;;;;;;;;;;;;;7386140;19;19999;-43
2022/01/16 05:27:00;;;;;;;;;;;;;;;;;;7386554;19;20340;-43
2022/01/16 05:29:27;;;;;;;;;;;;;;;;;;7389448;19;20390;-45
2022/01/16 05:31:54;;;;;;;;;;;;;;;;;;7388964;19;19923;-45
2022/01/16 05:34:25;;;;;;;;;;;;;;;;;;7389125;19;19970;-44
2022/01/16 05:36:53;;;;;;;;;;;;;;;;;;7388537;19;19922;-45
2022/01/16 05:39:22;;;;;;;;;;;;;;;;;;7388260;19;19923;-46
2022/01/16 05:41:50;;;;;;;;;;;;;;;;;;7388929;19;19928;-46
2022/01/16 05:44:17;;;;;;;;;;;;;;;;;;7388877;19;20275;-44
2022/01/16 05:46:44;;;;;;;;;;;;;;;;;;7389215;19;20316;-45
2022/01/16 05:49:11;;;;;;;;;;;;;;;;;;7388575;19;20356;-44
2022/01/16 05:51:38;;;;;;;;;;;;;;;;;;7388364;19;20379;-46
2022/01/16 05:54:06;;;;;;;;;;;;;;;;;;7388446;19;19919;-44
2022/01/16 05:56:33;;;;;;;;;;;;;;;;;;7384314;19;19978;-45
2022/01/16 05:59:00;;;;;;;;;;;;;;;;;;7387102;19;19919;-45
2022/01/16 06:01:27;;;;;;;;;;;;;;;;;;7386936;19;20443;-47
2022/01/16 06:03:55;;;;;;;;;;;;;;;;;;7388219;19;19933;-44
2022/01/16 06:06:22;;;;;;;;;;;;;;;;;;7386658;19;19923;-43
2022/01/16 06:08:49;;;;;;;;;;;;;;;;;;7387155;19;19919;-44
2022/01/16 06:11:16;;;;;;;;;;;;;;;;;;7387564;19;19978;-44
2022/01/16 06:13:43;;;;;;;;;;;;;;;;;;7387898;19;20490;-47
2022/01/16 06:16:10;;;;;;;;;;;;;;;;;;7387796;19;19998;-43
2022/01/16 06:18:38;;;;;;;;;;;;;;;;;;7387816;19;19919;-45
2022/01/16 06:21:05;;;;;;;;;;;;;;;;;;7388011;19;19914;-45
2022/01/16 06:23:32;;;;;;;;;;;;;;;;;;7386272;19;19918;-48
2022/01/16 06:26:00;;;;;;;;;;;;;;;;;;7386797;19;20025;-42
2022/01/16 06:28:28;;;;;;;;;;;;;;;;;;7387065;19;19918;-46
2022/01/16 06:30:55;;;;;;;;;;;;;;;;;;7388778;19;19915;-42
2022/01/16 06:33:24;;;;;;;;;;;;;;;;;;7387023;19;20335;-42
2022/01/16 06:35:51;;;;;;;;;;;;;;;;;;7386645;19;19919;-43
2022/01/16 06:38:18;;;;;;;;;;;;;;;;;;7387227;19;19925;-45
2022/01/16 06:40:45;;;;;;;;;;;;;;;;;;7386238;19;19927;-42
2022/01/16 06:43:12;;;;;;;;;;;;;;;;;;7387110;19;19915;-44
2022/01/16 06:45:40;;;;;;;;;;;;;;;;;;7385661;19;19929;-41
2022/01/16 06:48:07;;;;;;;;;;;;;;;;;;7387858;19;20253;-45
2022/01/16 06:50:34;;;;;;;;;;;;;;;;;;7389990;19;19951;-43
2022/01/16 06:53:02;;;;;;;;;;;;;;;;;;7387004;19;19937;-42
2022/01/16 06:55:29;;;;;;;;;;;;;;;;;;7386837;19;19926;-46
2022/01/16 06:57:56;;;;;;;;;;;;;;;;;;7387069;19;19922;-48
2022/01/16 07:00:24;;;;;;;;;;;;;;;;;;7386517;19;19915;-42
2022/01/16 07:02:51;;;;;;;;;;;;;;;;;;7386322;19;19927;-45
2022/01/16 07:05:18;;;;;;;;;;;;;;;;;;7386764;19;19942;-43
2022/01/16 07:07:45;;;;;;;;;;;;;;;;;;7385857;19;19942;-44
2022/01/16 07:10:13;;;;;;;;;;;;;;;;;;7393685;19;19923;-44
2022/01/16 07:12:40;;;;;;;;;;;;;;;;;;7393857;19;20393;-43
2022/01/16 07:15:07;;;;;;;;;;;;;;;;;;7394355;19;19918;-42
2022/01/16 07:17:35;;;;;;;;;;;;;;;;;;7394618;19;19919;-42
2022/01/16 07:20:03;;;;;;;;;;;;;;;;;;7393638;19;20457;-42
2022/01/16 07:22:31;;;;;;;;;;;;;;;;;;7393533;19;19923;-43
2022/01/16 07:24:58;;;;;;;;;;;;;;;;;;7392751;19;19925;-43
2022/01/16 07:27:25;;;;;;;;;;;;;;;;;;7394125;19;19932;-43
2022/01/16 07:29:53;;;;;;;;;;;;;;;;;;7391810;19;19915;-45
2022/01/16 07:32:20;;;;;;;;;;;;;;;;;;7393198;19;19926;-46
2022/01/16 07:34:51;;;;;;;;;;;;;;;;;;7393006;19;19915;-42
2022/01/16 07:37:18;;;;;;;;;;;;;;;;;;7393050;19;19919;-43
2022/01/16 07:39:46;;;;;;;;;;;;;;;;;;7392804;19;20344;-43
2022/01/16 07:42:13;;;;;;;;;;;;;;;;;;7389939;19;19919;-43
2022/01/16 07:44:40;;;;;;;;;;;;;;;;;;7393218;19;20620;-43
2022/01/16 07:47:07;;;;;;;;;;;;;;;;;;7396559;19;19915;-48
2022/01/16 07:49:34;;;;;;;;;;;;;;;;;;7392226;19;19929;-43
2022/01/16 07:52:02;;;;;;;;;;;;;;;;;;7393492;19;19923;-43
2022/01/16 07:54:29;;;;;;;;;;;;;;;;;;7390903;19;20186;-44
2022/01/16 07:56:56;;;;;;;;;;;;;;;;;;7390000;19;19919;-43
2022/01/16 07:59:23;;;;;;;;;;;;;;;;;;7392421;19;19921;-43
2022/01/16 08:01:51;;;;;;;;;;;;;;;;;;7390170;19;19923;-43
2022/01/16 08:04:18;;;;;;;;;;;;;;;;;;7392274;19;19922;-44
2022/01/16 08:06:45;;;;;;;;;;;;;;;;;;7391420;19;19929;-44
2022/01/16 08:09:13;;;;;;;;;;;;;;;;;;7392026;19;19923;-44
2022/01/16 08:11:40;;;;;;;;;;;;;;;;;;7392263;19;19925;-45
2022/01/16 08:14:07;;;;;;;;;;;;;;;;;;7392950;19;19970;-50
2022/01/16 08:16:34;;;;;;;;;;;;;;;;;;7391639;19;19964;-45
2022/01/16 08:19:01;;;;;;;;;;;;;;;;;;7391412;19;19941;-47
2022/01/16 08:21:28;;;;;;;;;;;;;;;;;;7390853;19;19921;-45
2022/01/16 08:23:56;;;;;;;;;;;;;;;;;;7394279;19;19936;-44
2022/01/16 08:26:23;;;;;;;;;;;;;;;;;;7394033;19;19943;-43
2022/01/16 08:28:50;;;;;;;;;;;;;;;;;;7395416;19;19927;-48
2022/01/16 08:31:17;;;;;;;;;;;;;;;;;;7393625;19;20245;-48
2022/01/16 08:33:44;;;;;;;;;;;;;;;;;;7395711;19;19911;-43
2022/01/16 08:36:11;;;;;;;;;;;;;;;;;;7395114;19;19915;-43
2022/01/16 08:38:39;;;;;;;;;;;;;;;;;;7394746;19;19915;-50
2022/01/16 08:41:06;;;;;;;;;;;;;;;;;;7394392;19;19923;-48
2022/01/16 08:43:33;;;;;;;;;;;;;;;;;;7395038;19;19921;-44
2022/01/16 08:46:01;;;;;;;;;;;;;;;;;;7394326;19;19914;-46
2022/01/16 08:48:28;;;;;;;;;;;;;;;;;;7393816;19;19918;-51
2022/01/16 08:50:55;;;;;;;;;;;;;;;;;;7394888;19;19915;-45
2022/01/16 08:53:23;;;;;;;;;;;;;;;;;;7395167;19;19942;-50
2022/01/16 08:55:50;;;;;;;;;;;;;;;;;;7396142;19;19915;-45
2022/01/16 08:58:17;;;;;;;;;;;;;;;;;;7394330;19;19919;-46
2022/01/16 09:00:47;;;;;;;;;;;;;;;;;;7393176;19;20347;-48
2022/01/16 09:03:15;;;;;;;;;;;;;;;;;;7394644;19;19919;-50
2022/01/16 09:05:42;;;;;;;;;;;;;;;;;;7394050;19;19934;-48
2022/01/16 09:08:10;;;;;;;;;;;;;;;;;;7394386;19;19915;-40
2022/01/16 09:10:37;;;;;;;;;;;;;;;;;;7394623;19;19918;-46
2022/01/16 09:13:05;;;;;;;;;;;;;;;;;;7394219;19;19915;-46
2022/01/16 09:15:32;;;;;;;;;;;;;;;;;;7393731;19;19918;-48
2022/01/16 09:17:59;;;;;;;;;;;;;;;;;;7394077;19;20455;-42
2022/01/16 09:20:26;;;;;;;;;;;;;;;;;;7394193;19;19937;-43
2022/01/16 09:22:54;;;;;;;;;;;;;;;;;;7393316;19;19922;-43
2022/01/16 09:25:22;;;;;;;;;;;;;;;;;;7396805;19;19922;-46
2022/01/16 09:27:50;;;;;;;;;;;;;;;;;;7393170;19;20251;-44
2022/01/16 09:30:17;;;;;;;;;;;;;;;;;;7393643;19;19915;-47
2022/01/16 09:32:45;;;;;;;;;;;;;;;;;;7392899;19;19931;-45
2022/01/16 09:35:12;;;;;;;;;;;;;;;;;;7393146;19;19956;-44
2022/01/16 09:37:40;;;;;;;;;;;;;;;;;;7394090;19;19960;-45
2022/01/16 09:40:07;;;;;;;;;;;;;;;;;;7393471;19;19922;-47
2022/01/16 09:42:35;;;;;;;;;;;;;;;;;;7391844;19;19918;-43
2022/01/16 09:45:05;;;;;;;;;;;;;;;;;;7392669;19;19920;-43
2022/01/16 09:47:32;;;;;;;;;;;;;;;;;;7393228;19;19961;-51
2022/01/16 09:49:59;;;;;;;;;;;;;;;;;;7391931;19;19914;-46
2022/01/16 09:52:26;;;;;;;;;;;;;;;;;;7391792;19;19990;-43
2022/01/16 09:54:54;;;;;;;;;;;;;;;;;;7392832;19;19924;-45
2022/01/16 09:57:21;;;;;;;;;;;;;;;;;;7391471;19;19951;-52
2022/01/16 09:59:48;;;;;;;;;;;;;;;;;;7391128;19;19958;-46
2022/01/16 10:02:15;;;;;;;;;;;;;;;;;;7389944;19;19915;-48
2022/01/16 10:04:43;;;;;;;;;;;;;;;;;;7391859;19;20241;-46
2022/01/16 10:07:11;;;;;;;;;;;;;;;;;;7390995;19;19935;-49
2022/01/16 10:09:40;;;;;;;;;;;;;;;;;;7391705;19;19907;-44
2022/01/16 10:12:19;;;;;;;;;;;;;;;;;;7392077;19;19964;-43
2022/01/16 10:14:49;;;;;;;;;;;;;;;;;;7392480;19;19935;-49
2022/01/16 10:17:19;;;;;;;;;;;;;;;;;;7391585;19;19970;-43
2022/01/16 10:19:56;;;;;;;;;;;;;;;;;;7391292;19;19915;-46
2022/01/16 10:22:35;;;;;;;;;;;;;;;;;;7389789;19;19919;-44
2022/01/16 10:25:04;;;;;;;;;;;;;;;;;;7390338;19;20066;-42
2022/01/16 10:27:34;;;;;;;;;;;;;;;;;;7391551;19;19918;-41
2022/01/16 10:30:07;;;;;;;;;;;;;;;;;;7391717;19;19954;-43
2022/01/16 10:32:38;;;;;;;;;;;;;;;;;;7391222;19;19911;-46
2022/01/16 10:35:07;;;;;;;;;;;;;;;;;;7393011;19;20328;-44
2022/01/16 10:37:34;;;;;;;;;;;;;;;;;;7391120;19;19986;-46
2022/01/16 10:40:05;;;;;;;;;;;;;;;;;;7391642;19;20264;-41
2022/01/16 10:42:33;;;;;;;;;;;;;;;;;;7387592;19;20324;-42
2022/01/16 10:45:07;;;;;;;;;;;;;;;;;;7390641;19;19919;-47
2022/01/16 10:47:36;;;;;;;;;;;;;;;;;;7391419;19;19923;-46
2022/01/16 10:50:12;;;;;;;;;;;;;;;;;;7390580;19;19922;-45
2022/01/16 10:52:46;;;;;;;;;;;;;;;;;;7390828;19;19975;-45
2022/01/16 10:55:14;;;;;;;;;;;;;;;;;;7391164;19;19915;-44
2022/01/16 10:57:41;;;;;;;;;;;;;;;;;;7390300;19;19986;-44
2022/01/16 11:00:13;;;;;;;;;;;;;;;;;;7390131;19;19911;-47
2022/01/16 11:02:41;;;;;;;;;;;;;;;;;;7389017;19;19919;-43
2022/01/16 11:05:13;;;;;;;;;;;;;;;;;;7390251;19;19915;-45
2022/01/16 11:07:42;;;;;;;;;;;;;;;;;;7385834;19;19925;-45
2022/01/16 11:10:20;;;;;;;;;;;;;;;;;;7389160;19;19915;-44
2022/01/16 11:12:49;;;;;;;;;;;;;;;;;;7390073;19;19926;-50
2022/01/16 11:15:17;;;;;;;;;;;;;;;;;;7393371;19;19923;-43
2022/01/16 11:17:44;;;;;;;;;;;;;;;;;;7390033;19;19921;-43
2022/01/16 11:20:11;;;;;;;;;;;;;;;;;;7390029;19;20336;-46
2022/01/16 11:23:14;;;;;;;;;;;;;;;;;;7386938;19;19915;-44
2022/01/16 11:25:34;;;;;;;;;;;;;;;;;;7389751;19;19918;-46
2022/01/16 11:28:13;;;;;;;;;;;;;;;;;;7390317;19;19918;-43
2022/01/16 11:30:51;;;;;;;;;;;;;;;;;;7390431;19;19915;-43
2022/01/16 11:33:20;;;;;;;;;;;;;;;;;;7390692;19;19967;-45
2022/01/16 11:35:59;;;;;;;;;;;;;;;;;;7390070;19;19938;-44
2022/01/16 11:38:45;;;;;;;;;;;;;;;;;;7387979;19;19915;-46
2022/01/16 11:41:14;;;;;;;;;;;;;;;;;;7383164;19;20313;-42
2022/01/16 11:43:45;;;;;;;;;;;;;;;;;;7381414;19;19921;-43
2022/01/16 11:46:14;;;;;;;;;;;;;;;;;;7381806;19;20319;-49
2022/01/16 11:48:47;;;;;;;;;;;;;;;;;;7380867;19;19954;-44
2022/01/16 11:51:38;;;;;;;;;;;;;;;;;;7381977;19;19949;-44
2022/01/16 11:54:07;;;;;;;;;;;;;;;;;;7382519;19;20343;-43
2022/01/16 11:56:40;;;;;;;;;;;;;;;;;;7386112;19;19929;-47
2022/01/16 11:59:10;;;;;;;;;;;;;;;;;;7392746;19;19915;-41
2022/01/16 12:01:56;;;;;;;;;;;;;;;;;;7394318;19;19914;-42
2022/01/16 12:04:29;;;;;;;;;;;;;;;;;;7389607;19;20348;-43
2022/01/16 12:07:11;;;;;;;;;;;;;;;;;;7391890;19;19994;-44
2022/01/16 12:12:12;;;;;;;;;;;;;;;;;;7388200;19;19947;-44
2022/01/16 12:14:46;;;;;;;;;;;;;;;;;;7387782;19;19926;-46
2022/01/16 12:17:28;;;;;;;;;;;;;;;;;;7388078;19;19919;-43
2022/01/16 12:19:56;;;;;;;;;;;;;;;;;;7388591;19;19919;-43
2022/01/16 12:22:42;;;;;;;;;;;;;;;;;;7388277;19;19937;-44
2022/01/16 12:25:20;;;;;;;;;;;;;;;;;;7390597;19;19919;-44
2022/01/16 12:27:54;;;;;;;;;;;;;;;;;;7392627;19;20308;-51
2022/01/16 12:30:32;;;;;;;;;;;;;;;;;;7392369;19;19926;-49
2022/01/16 12:33:03;;;;;;;;;;;;;;;;;;7389597;19;19915;-42
2022/01/16 12:35:39;;;;;;;;;;;;;;;;;;7391519;19;19923;-45
2022/01/16 12:38:16;;;;;;;;;;;;;;;;;;7390965;19;20310;-42
2022/01/16 12:40:46;;;;;;;;;;;;;;;;;;7391190;19;19923;-46
2022/01/16 12:43:21;;;;;;;;;;;;;;;;;;7392876;19;19914;-43
2022/01/16 12:45:49;;;;;;;;;;;;;;;;;;7391466;19;19989;-43
2022/01/16 12:48:16;;;;;;;;;;;;;;;;;;7391066;19;19923;-42
2022/01/16 12:50:43;;;;;;;;;;;;;;;;;;7391112;19;19923;-46
2022/01/16 12:53:11;;;;;;;;;;;;;;;;;;7391215;19;20018;-47
2022/01/16 12:55:38;;;;;;;;;;;;;;;;;;7389711;19;19923;-43
2022/01/16 12:58:22;;;;;;;;;;;;;;;;;;7389907;19;19927;-46
2022/01/16 13:00:58;;;;;;;;;;;;;;;;;;7389538;19;19942;-47
2022/01/16 13:03:26;;;;;;;;;;;;;;;;;;7387943;19;19915;-46
2022/01/16 13:06:12;;;;;;;;;;;;;;;;;;7390198;19;19929;-51
2022/01/16 13:08:59;;;;;;;;;;;;;;;;;;7389928;19;19951;-42
2022/01/16 13:11:28;;;;;;;;;;;;;;;;;;7390445;19;19946;-42
2022/01/16 13:13:56;;;;;;;;;;;;;;;;;;7390563;19;19918;-48
2022/01/16 13:16:24;;;;;;;;;;;;;;;;;;7385853;19;19937;-47
2022/01/16 13:19:03;;;;;;;;;;;;;;;;;;7385188;19;19934;-45
2022/01/16 13:21:39;;;;;;;;;;;;;;;;;;7389348;19;19950;-44
2022/01/16 13:24:21;;;;;;;;;;;;;;;;;;7383955;19;19957;-42
2022/01/16 13:26:49;;;;;;;;;;;;;;;;;;7380805;19;19921;-43
2022/01/16 13:29:18;;;;;;;;;;;;;;;;;;7382150;19;19934;-43
2022/01/16 13:31:45;;;;;;;;;;;;;;;;;;7381701;19;19923;-50
2022/01/16 13:34:14;;;;;;;;;;;;;;;;;;7381510;19;20344;-43
2022/01/16 13:36:51;;;;;;;;;;;;;;;;;;7384120;19;19923;-41
2022/01/16 13:39:37;;;;;;;;;;;;;;;;;;7381470;19;19911;-45
2022/01/16 13:42:22;;;;;;;;;;;;;;;;;;7381013;19;20392;-43
2022/01/16 13:44:50;;;;;;;;;;;;;;;;;;7381815;19;19922;-43
2022/01/16 13:47:22;;;;;;;;;;;;;;;;;;7379817;19;20367;-43
2022/01/16 13:49:50;;;;;;;;;;;;;;;;;;7382028;19;19927;-40
2022/01/16 13:52:25;;;;;;;;;;;;;;;;;;7381561;19;19936;-44
2022/01/16 13:55:03;;;;;;;;;;;;;;;;;;7381066;19;19923;-44
2022/01/16 13:57:31;;;;;;;;;;;;;;;;;;7379566;19;19929;-44
2022/01/16 13:59:59;;;;;;;;;;;;;;;;;;7381732;19;19922;-43
2022/01/16 14:02:26;;;;;;;;;;;;;;;;;;7380580;19;19923;-43
2022/01/16 14:04:54;;;;;;;;;;;;;;;;;;7383052;19;19984;-43
2022/01/16 14:07:22;;;;;;;;;;;;;;;;;;7385323;19;19919;-46
2022/01/16 14:09:55;;;;;;;;;;;;;;;;;;7384924;19;20540;-46
2022/01/16 14:12:23;;;;;;;;;;;;;;;;;;7384648;19;19982;-45
2022/01/16 14:14:51;;;;;;;;;;;;;;;;;;7384684;19;20443;-43
2022/01/16 14:22:18;;;;;;;;;;;;;;;;;;7392111;19;20247;-54
2022/01/16 14:24:50;;;;;;;;;;;;;;;;;;7387256;19;20279;-43
2022/01/16 14:27:24;;;;;;;;;;;;;;;;;;7389949;19;19914;-43
2022/01/16 14:29:53;;;;;;;;;;;;;;;;;;7391327;19;20786;-44
2022/01/16 14:32:21;;;;;;;;;;;;;;;;;;7393987;19;19923;-42
2022/01/16 14:34:49;;;;;;;;;;;;;;;;;;7391922;19;19938;-44
2022/01/16 14:37:17;;;;;;;;;;;;;;;;;;7391047;19;19923;-45
2022/01/16 14:39:46;;;;;;;;;;;;;;;;;;7391400;19;20324;-43
2022/01/16 14:42:17;;;;;;;;;;;;;;;;;;7390132;19;19911;-44
2022/01/16 14:44:46;;;;;;;;;;;;;;;;;;7391274;19;19911;-45
2022/01/16 14:47:14;;;;;;;;;;;;;;;;;;7391869;19;19934;-42
2022/01/16 14:49:42;;;;;;;;;;;;;;;;;;7390796;19;19918;-43
2022/01/16 14:52:10;;;;;;;;;;;;;;;;;;7391178;19;19918;-49
2022/01/16 14:54:44;;;;;;;;;;;;;;;;;;7391570;19;20337;-50
2022/01/16 14:57:12;;;;;;;;;;;;;;;;;;7389411;19;19923;-42
2022/01/16 14:59:40;;;;;;;;;;;;;;;;;;7391204;19;19919;-45
2022/01/16 15:02:08;;;;;;;;;;;;;;;;;;7390167;19;19915;-48
2022/01/16 15:04:35;;;;;;;;;;;;;;;;;;7391178;19;19927;-45
2022/01/16 15:07:03;;;;;;;;;;;;;;;;;;7391083;19;19934;-43
2022/01/16 15:09:31;;;;;;;;;;;;;;;;;;7390706;19;19923;-44
2022/01/16 15:11:58;;;;;;;;;;;;;;;;;;7390715;19;19923;-48
2022/01/16 15:14:26;;;;;;;;;;;;;;;;;;7390731;19;19939;-51
2022/01/16 15:16:56;;;;;;;;;;;;;;;;;;7390517;19;19918;-47
2022/01/16 15:19:30;;;;;;;;;;;;;;;;;;7390970;19;19919;-45
2022/01/16 15:22:39;;;;;;;;;;;;;;;;;;7393804;19;19921;-46
2022/01/16 15:24:48;;;;;;;;;;;;;;;;;;7389171;19;19919;-43
2022/01/16 15:27:15;;;;;;;;;;;;;;;;;;7390214;19;19918;-45
2022/01/16 15:29:44;;;;;;;;;;;;;;;;;;7393218;19;19931;-43
2022/01/16 15:32:12;;;;;;;;;;;;;;;;;;7397459;19;19915;-46
2022/01/16 15:34:39;;;;;;;;;;;;;;;;;;7397067;19;19914;-43
2022/01/16 15:37:25;;;;;;;;;;;;;;;;;;7397402;19;19915;-46
2022/01/16 15:39:52;;;;;;;;;;;;;;;;;;7397600;19;19990;-42
2022/01/16 15:42:19;;;;;;;;;;;;;;;;;;7394973;19;19915;-42
2022/01/16 15:44:49;;;;;;;;;;;;;;;;;;7397013;19;19915;-43
2022/01/16 15:47:16;;;;;;;;;;;;;;;;;;7396755;19;19932;-43
2022/01/16 15:49:44;;;;;;;;;;;;;;;;;;7397304;19;19911;-42
2022/01/16 15:52:12;;;;;;;;;;;;;;;;;;7396996;19;19915;-48
2022/01/16 15:54:43;;;;;;;;;;;;;;;;;;7396369;19;19919;-45
2022/01/16 15:57:10;;;;;;;;;;;;;;;;;;7394708;19;19930;-45
2022/01/16 15:59:37;;;;;;;;;;;;;;;;;;7397024;19;19938;-43
2022/01/16 16:02:05;;;;;;;;;;;;;;;;;;7395180;19;19911;-44
2022/01/16 16:04:34;;;;;;;;;;;;;;;;;;7396704;19;19998;-43
2022/01/16 16:07:01;;;;;;;;;;;;;;;;;;7398699;19;19991;-44
2022/01/16 16:09:29;;;;;;;;;;;;;;;;;;7395951;19;19922;-43
2022/01/16 16:11:56;;;;;;;;;;;;;;;;;;7396413;19;19934;-46
2022/01/16 16:14:25;;;;;;;;;;;;;;;;;;7396250;19;19974;-46
2022/01/16 16:16:52;;;;;;;;;;;;;;;;;;7395854;19;19939;-43
2022/01/16 16:19:19;;;;;;;;;;;;;;;;;;7395834;19;19952;-46
2022/01/16 16:21:48;;;;;;;;;;;;;;;;;;7399900;19;19911;-43
2022/01/16 16:24:15;;;;;;;;;;;;;;;;;;7393795;19;19978;-43
2022/01/16 16:26:42;;;;;;;;;;;;;;;;;;7395930;19;19946;-48
2022/01/16 16:29:09;;;;;;;;;;;;;;;;;;7395677;19;19918;-45
2022/01/16 16:31:37;;;;;;;;;;;;;;;;;;7396261;19;19968;-44
2022/01/16 16:34:04;;;;;;;;;;;;;;;;;;7395912;19;19915;-43
2022/01/16 16:36:32;;;;;;;;;;;;;;;;;;7395303;19;19978;-43
2022/01/16 16:38:59;;;;;;;;;;;;;;;;;;7394617;19;19925;-43
2022/01/16 16:41:27;;;;;;;;;;;;;;;;;;7393604;19;19915;-47
2022/01/16 16:43:54;;;;;;;;;;;;;;;;;;7393524;19;19972;-43
2022/01/16 16:46:21;;;;;;;;;;;;;;;;;;7395115;19;19915;-45
2022/01/16 16:48:48;;;;;;;;;;;;;;;;;;7395175;19;19911;-48
2022/01/16 16:51:15;;;;;;;;;;;;;;;;;;7394820;19;19926;-47
2022/01/16 16:53:43;;;;;;;;;;;;;;;;;;7395304;19;19921;-45
2022/01/16 16:56:10;;;;;;;;;;;;;;;;;;7394179;19;19933;-48
2022/01/16 16:58:37;;;;;;;;;;;;;;;;;;7395119;19;19926;-44
2022/01/16 17:01:05;;;;;;;;;;;;;;;;;;7394915;19;19978;-44
2022/01/16 17:03:35;;;;;;;;;;;;;;;;;;7391970;19;19919;-44
2022/01/16 17:06:04;;;;;;;;;;;;;;;;;;7395015;19;19914;-47
2022/01/16 17:08:31;;;;;;;;;;;;;;;;;;7393875;19;20359;-43
2022/01/16 17:10:58;;;;;;;;;;;;;;;;;;7394779;19;19971;-49
2022/01/16 17:13:25;;;;;;;;;;;;;;;;;;7393809;19;20338;-43
2022/01/16 17:15:52;;;;;;;;;;;;;;;;;;7393964;19;19915;-44
2022/01/16 17:18:23;;;;;;;;;;;;;;;;;;7394462;19;19919;-48
2022/01/16 17:20:51;;;;;;;;;;;;;;;;;;7395521;19;20336;-47
2022/01/16 17:23:18;;;;;;;;;;;;;;;;;;7393444;19;19925;-44
2022/01/16 17:25:45;;;;;;;;;;;;;;;;;;7393142;19;20031;-45
2022/01/16 17:28:13;;;;;;;;;;;;;;;;;;7394007;19;19925;-43
2022/01/16 17:30:42;;;;;;;;;;;;;;;;;;7394192;19;19919;-44
2022/01/16 17:33:10;;;;;;;;;;;;;;;;;;7394130;19;19928;-46
2022/01/16 17:35:37;;;;;;;;;;;;;;;;;;7393888;19;19922;-46
2022/01/16 17:38:05;;;;;;;;;;;;;;;;;;7393649;19;19918;-48
2022/01/16 17:40:33;;;;;;;;;;;;;;;;;;7393072;19;19915;-45
2022/01/16 17:43:02;;;;;;;;;;;;;;;;;;7393549;19;19963;-44
2022/01/16 17:45:30;;;;;;;;;;;;;;;;;;7392462;19;19919;-47
2022/01/16 17:48:00;;;;;;;;;;;;;;;;;;7392710;19;19919;-45
2022/01/16 17:50:28;;;;;;;;;;;;;;;;;;7393744;19;19926;-44
2022/01/16 17:52:55;;;;;;;;;;;;;;;;;;7390061;19;19919;-49
2022/01/16 17:55:23;;;;;;;;;;;;;;;;;;7392720;19;19919;-44
2022/01/16 17:57:50;;;;;;;;;;;;;;;;;;7392269;19;19910;-46